Latest Coastal Weather Observations for Hogan Island

IDV60701

Issued at 11:11 am EDT Saturday 7 March 2015 (issued every 10 minutes, with the page automatically refreshed every 10 minutes)

About coastal observations | Map of coastal stations | Coastal observations for VIC | Marine services | Other Formats
Station Details ID: 200838 Name: HOGAN ISLAND Lat: -39.22 Lon: 146.98 Height: 116.0 m
Data from the previous 72 hours. | See also: Recent months at Hogan Island
Date/Time
EDT
Temp

°C
Wind Pressure Rain
since 9am
mm
Weather Cloud Vis
km
Sea
Height
m
Swell
Dir
 
Speed
knots
Gust
knots
hPa Trend Height
m
Period
s
Dir
07/11:07am 16.3 WNW 31 41 1009.0 - 0.4 - - - - - - -
07/11:00am 16.3 W 33 41 1008.6 - 0.4 - - - - - - -
07/10:30am 16.0 W 33 37 1008.6 - 0.4 - - - - - - -
07/10:00am 15.4 W 27 33 1008.6 - 0.2 - - - - - - -
07/09:47am 16.2 WNW 20 29 1008.7 - 0.0 - - - - - - -
07/09:30am 16.2 W 31 38 1008.7 - 0.0 - - - - - - -
07/09:00am 16.3 W 28 32 1008.3 - 1.4 - - - - - - -
07/08:30am 15.9 W 29 33 1008.5 - 1.4 - - - - - - -
07/08:00am 15.6 W 27 31 1008.6 - 1.4 - - - - - - -
07/07:30am 15.0 W 27 35 1008.3 - 1.4 - - - - - - -
07/07:00am 15.4 W 28 32 1008.0 - 0.6 - - - - - - -
07/06:30am 15.0 W 27 31 1007.9 - 0.6 - - - - - - -
07/06:00am 14.9 W 28 36 1007.6 - 0.6 - - - - - - -
07/05:30am 14.8 W 29 35 1007.9 - 0.6 - - - - - - -
07/05:00am 14.8 W 29 34 1007.8 - 0.6 - - - - - - -
07/04:30am 14.9 W 25 31 1008.0 - 0.6 - - - - - - -
07/04:00am 15.0 W 22 27 1008.3 - 0.6 - - - - - - -
07/03:30am 15.4 W 20 23 1008.5 - 0.6 - - - - - - -
07/03:00am 15.4 W 23 26 1008.5 - 0.6 - - - - - - -
07/02:30am 15.5 W 22 25 1009.0 - 0.6 - - - - - - -
07/02:00am 15.5 W 23 27 1009.2 - 0.6 - - - - - - -
07/01:30am 15.4 W 25 29 1009.3 - 0.6 - - - - - - -
07/01:00am 15.1 WSW 27 31 1009.3 - 0.6 - - - - - - -
07/12:30am 15.3 WSW 29 33 1009.3 - 0.6 - - - - - - -
07/12:00am 15.2 W 30 34 1009.3 - 0.6 - - - - - - -
 
Date/Time
EDT
Temp

°C
Wind Pressure Rain
since 9am
mm
Weather Cloud Vis
km
Sea
Height
m
Swell
Dir
 
Speed
knots
Gust
knots
hPa Trend Height
m
Period
s
Dir
06/11:30pm 15.0 WSW 32 37 1009.5 - 0.6 - - - - - - -
06/11:00pm 14.9 WSW 33 39 1009.6 - 0.6 - - - - - - -
06/10:30pm 14.8 WSW 32 38 1009.4 - 0.6 - - - - - - -
06/10:00pm 14.6 WSW 31 37 1009.2 - 0.6 - - - - - - -
06/09:30pm 14.7 WSW 32 37 1009.0 - 0.6 - - - - - - -
06/09:00pm 14.9 WSW 32 37 1008.5 - 0.6 - - - - - - -
06/08:30pm 14.6 WSW 35 41 1008.0 - 0.6 - - - - - - -
06/08:00pm 14.4 W 36 43 1007.7 - 0.6 - - - - - - -
06/07:30pm 14.6 W 37 43 1007.5 - 0.6 - - - - - - -
06/07:00pm 15.1 WSW 35 40 1007.4 - 0.6 - - - - - - -
06/06:30pm 15.3 WSW 40 46 1006.5 - 0.6 - - - - - - -
06/06:00pm 15.7 WSW 42 48 1005.9 - 0.6 - - - - - - -
06/05:30pm 16.2 WSW 41 48 1006.0 - 0.6 - - - - - - -
06/05:00pm 15.7 W 42 48 1005.7 - 0.6 - - - - - - -
06/04:30pm 16.5 W 42 49 1005.2 - 0.6 - - - - - - -
06/04:00pm 16.8 WSW 44 52 1005.1 - 0.6 - - - - - - -
06/03:30pm 16.9 WSW 40 46 1005.8 - 0.6 - - - - - - -
06/03:03pm 17.1 WSW 42 53 1004.8 - 0.6 - - - - - - -
06/03:00pm 17.4 WSW 41 48 1005.3 - 0.6 - - - - - - -
06/02:30pm 17.2 WSW 45 51 1004.5 - 0.6 - - - - - - -
06/02:00pm 17.0 WSW 47 59 1003.7 - 0.6 - - - - - - -
06/01:50pm 17.4 WSW 42 52 1005.1 - 0.6 - - - - - - -
06/01:30pm 17.0 WSW 46 53 1004.4 - 0.6 - - - - - - -
06/01:01pm 17.0 WSW 41 51 1004.6 - 0.6 - - - - - - -
06/01:00pm 16.1 WSW 42 51 1004.5 - 0.6 - - - - - - -
06/12:39pm 15.9 WSW 37 47 1004.9 - 0.6 - - - - - - -
06/12:30pm 17.1 WSW 38 44 1004.9 - 0.6 - - - - - - -
06/12:13pm 16.8 WSW 40 50 1004.9 - 0.6 - - - - - - -
06/12:00pm 15.9 WSW 42 50 1004.3 - 0.6 - - - - - - -
06/11:35am 15.5 WSW 41 51 1004.1 - 0.6 - - - - - - -
06/11:30am 16.4 WSW 42 51 1004.3 - 0.6 - - - - - - -
06/11:00am 15.9 WSW 45 55 1003.1 - 0.6 - - - - - - -
06/10:38am 15.4 WSW 44 54 1003.2 - 0.6 - - - - - - -
06/10:30am 14.7 WSW 43 50 1003.6 - 0.6 - - - - - - -
06/10:00am 15.1 W 50 60 1002.4 - 0.6 - - - - - - -
06/09:41am 15.1 W 47 57 1002.4 - 0.6 - - - - - - -
06/09:30am 14.9 W 49 55 1002.0 - 0.6 - - - - - - -
06/09:00am 14.8 W 49 61 1001.5 - 0.0 - - - - - - -
06/08:30am 15.1 W 51 62 1000.6 - 0.0 - - - - - - -
06/08:18am 15.5 W 50 60 1000.9 - 0.0 - - - - - - -
06/08:00am 15.6 W 52 59 1000.9 - 0.0 - - - - - - -
06/07:30am 14.9 W 54 65 1000.5 - 0.0 - - - - - - -
06/07:00am 14.4 W 52 63 1000.1 - 0.0 - - - - - - -
06/06:34am 14.4 W 55 70 999.7 - 0.0 - - - - - - -
06/06:30am 14.6 W 55 63 1000.0 - 0.0 - - - - - - -
06/06:00am 14.7 W 56 67 999.8 - 0.0 - - - - - - -
06/05:30am 13.8 W 56 67 999.9 - 0.0 - - - - - - -
06/05:27am 13.9 W 55 66 1000.1 - 0.0 - - - - - - -
06/05:00am 13.5 W 53 61 1000.6 - 0.0 - - - - - - -
06/04:30am 13.7 W 54 66 1001.0 - 0.0 - - - - - - -
06/04:00am 13.4 W 53 64 1001.7 - 0.0 - - - - - - -
06/03:30am 14.0 W 55 67 1001.8 - 0.0 - - - - - - -
06/03:01am 15.0 W 53 65 1001.6 - 0.0 - - - - - - -
06/03:00am 15.0 W 53 62 1001.6 - 0.0 - - - - - - -
06/02:30am 15.0 W 53 66 1002.6 - 0.0 - - - - - - -
06/02:00am 15.0 W 53 64 1003.4 - 0.0 - - - - - - -
06/01:41am 15.1 W 53 64 1003.6 - 0.0 - - - - - - -
06/01:30am 14.8 W 52 61 1004.1 - 0.0 - - - - - - -
06/01:00am 14.9 W 52 63 1004.5 - 0.0 - - - - - - -
06/12:30am 14.9 W 46 56 1005.1 - 0.0 - - - - - - -
06/12:03am 14.7 W 52 62 1005.7 - 0.0 - - - - - - -
06/12:00am 14.8 W 54 62 1005.4 - 0.0 - - - - - - -
 
Date/Time
EDT
Temp

°C
Wind Pressure Rain
since 9am
mm
Weather Cloud Vis
km
Sea
Height
m
Swell
Dir
 
Speed
knots
Gust
knots
hPa Trend Height
m
Period
s
Dir
05/11:30pm 12.7 W 53 65 1006.2 - 0.0 - - - - - - -
05/11:17pm 14.9 W 47 58 1006.1 - 0.0 - - - - - - -
05/11:00pm 15.0 W 50 58 1006.5 - 0.0 - - - - - - -
05/10:30pm 14.8 W 50 56 1006.8 - 0.0 - - - - - - -
05/10:00pm 13.7 W 48 58 1007.6 - 0.0 - - - - - - -
05/09:32pm 13.8 W 45 58 1007.6 - 0.0 - - - - - - -
05/09:30pm 14.4 W 45 53 1007.9 - 0.0 - - - - - - -
05/09:02pm 13.9 W 45 55 1008.2 - 0.0 - - - - - - -
05/09:00pm 13.7 W 46 55 1007.9 - 0.0 - - - - - - -
05/08:48pm 14.2 W 43 58 1008.1 - 0.0 - - - - - - -
05/08:30pm 14.7 W 41 48 1008.5 - 0.0 - - - - - - -
05/08:00pm 14.4 W 43 51 1008.8 - 0.0 - - - - - - -
05/07:57pm 14.5 W 41 51 1008.6 - 0.0 - - - - - - -
05/07:30pm 14.5 W 43 50 1009.4 - 0.0 - - - - - - -
05/07:00pm 14.5 W 41 51 1009.5 - 0.0 - - - - - - -
05/06:58pm 14.4 W 41 51 1009.7 - 0.0 - - - - - - -
05/06:30pm 14.2 W 40 45 1010.0 - 0.0 - - - - - - -
05/06:00pm 14.5 W 40 46 1010.0 - 0.0 - - - - - - -
05/05:30pm 15.1 W 43 50 1010.4 - 0.0 - - - - - - -
05/05:00pm 15.3 W 42 48 1010.7 - 0.0 - - - - - - -
05/04:44pm 15.2 WSW 39 49 1010.9 - 0.0 - - - - - - -
05/04:30pm 14.9 W 41 47 1011.1 - 0.0 - - - - - - -
05/04:00pm 15.4 W 40 45 1011.2 - 0.0 - - - - - - -
05/03:30pm 15.9 W 39 47 1011.3 - 0.0 - - - - - - -
05/03:00pm 15.5 W 39 45 1011.3 - 0.0 - - - - - - -
05/02:33pm 14.4 WSW 36 46 1011.8 - 0.0 - - - - - - -
05/02:30pm 14.9 WSW 35 41 1012.1 - 0.0 - - - - - - -
05/02:00pm 15.7 WSW 35 43 1012.6 - 0.0 - - - - - - -
05/01:30pm 15.6 WSW 35 41 1012.6 - 0.0 - - - - - - -
05/01:05pm 15.3 WSW 35 45 1012.5 - 0.0 - - - - - - -
05/01:00pm 15.5 WSW 36 45 1012.5 - 0.0 - - - - - - -
05/12:30pm 14.6 WSW 35 43 1012.9 - 0.0 - - - - - - -
05/12:00pm 13.9 WSW 39 47 1012.3 - 0.0 - - - - - - -
05/11:54am 14.8 WSW 36 47 1012.4 - 0.0 - - - - - - -
05/11:30am 14.6 WSW 40 47 1012.1 - 0.0 - - - - - - -
05/11:00am 12.3 WSW 43 55 1012.1 - 0.0 - - - - - - -
05/10:56am 12.1 WSW 48 55 1011.7 - 0.0 - - - - - - -
05/10:37am 14.0 WSW 37 48 1011.4 - 0.0 - - - - - - -
05/10:30am 13.8 WSW 37 44 1011.2 - 0.0 - - - - - - -
05/10:03am 14.1 WSW 40 50 1010.9 - 0.0 - - - - - - -
05/10:00am 13.7 WSW 42 50 1010.5 - 0.0 - - - - - - -
05/09:30am 13.4 SW 40 50 1010.2 - 0.0 - - - - - - -
05/09:00am 11.1 WSW 44 58 1009.0 - 1.6 - - - - - - -
05/08:30am 12.3 WSW 46 58 1008.6 - 1.6 - - - - - - -
05/08:01am 12.5 WSW 43 53 1008.4 - 1.6 - - - - - - -
05/08:00am 12.4 WSW 44 53 1008.3 - 1.6 - - - - - - -
05/07:45am 11.5 WSW 50 60 1008.0 - 1.6 - - - - - - -
05/07:41am 11.5 WSW 52 60 1007.7 - 1.6 - - - - - - -
05/07:30am 11.6 WSW 41 54 1007.6 - 1.4 - - - - - - -
05/07:00am 11.1 W 42 55 1007.0 - 1.2 - - - - - - -
05/06:30am 11.4 WSW 47 59 1005.7 - 1.2 - - - - - - -
05/06:24am 10.8 SW 47 62 1005.7 - 1.2 - - - - - - -
05/06:19am 11.0 WSW 58 63 1005.2 - 1.2 - - - - - - -
05/06:17am 11.6 SW 45 68 1005.5 - 1.2 - - - - - - -
05/06:16am 11.4 WSW 42 68 1005.7 - 1.2 - - - - - - -
05/06:00am 13.0 WSW 55 65 1004.1 - 1.2 - - - - - - -
05/05:30am 13.0 WSW 59 70 1003.3 - 1.2 - - - - - - -
05/05:10am 12.1 WSW 63 73 1002.7 - 1.2 - - - - - - -
05/05:06am 12.6 WSW 64 73 1001.6 - 1.2 - - - - - - -
05/05:02am 12.7 W 53 63 1003.0 - 1.2 - - - - - - -
05/05:00am 12.5 W 55 63 1002.9 - 1.2 - - - - - - -
05/04:49am 12.3 W 51 65 1002.6 - 1.2 - - - - - - -
05/04:47am 12.0 WSW 54 70 1002.4 - 1.2 - - - - - - -
05/04:35am 11.3 WSW 66 77 1001.8 - 1.2 - - - - - - -
05/04:33am 11.2 WSW 69 77 1001.3 - 1.2 - - - - - - -
05/04:32am 11.9 W 54 77 1001.6 - 1.2 - - - - - - -
05/04:30am 12.5 W 51 64 1002.2 - 1.2 - - - - - - -
05/04:00am 12.5 WSW 57 68 1001.8 - 1.2 - - - - - - -
05/03:31am 12.8 W 52 64 1001.1 - 0.8 - - - - - - -
05/03:30am 12.9 W 52 61 1001.3 - 0.8 - - - - - - -
05/03:17am 13.6 W 50 72 1001.1 - 0.6 - - - - - - -
05/03:00am 13.5 W 45 55 1001.6 - 0.6 - - - - - - -
05/02:30am 13.9 W 50 60 1001.8 - 0.4 - - - - - - -
05/02:00am 13.3 W 53 69 1001.7 - 0.2 - - - - - - -
05/01:44am 15.1 WNW 55 65 1001.1 - 0.0 - - - - - - -
05/01:43am 15.5 WNW 56 63 1001.2 - 0.0 - - - - - - -
05/01:33am 17.6 WNW 45 55 1002.5 - 0.0 - - - - - - -
05/01:30am 17.4 WNW 47 55 1002.2 - 0.0 - - - - - - -
05/01:15am 17.3 WNW 38 49 1002.5 - 0.0 - - - - - - -
05/01:00am 17.5 WNW 41 49 1002.9 - 0.0 - - - - - - -
05/12:32am 17.1 WNW 38 49 1003.1 - 0.0 - - - - - - -
05/12:30am 16.9 WNW 37 46 1003.2 - 0.0 - - - - - - -
05/12:00am 16.7 W 38 47 1003.8 - 0.0 - - - - - - -
 
Date/Time
EDT
Temp

°C
Wind Pressure Rain
since 9am
mm
Weather Cloud Vis
km
Sea
Height
m
Swell
Dir
 
Speed
knots
Gust
knots
hPa Trend Height
m
Period
s
Dir
04/11:30pm 16.7 W 34 41 1004.3 - 0.0 - - - - - - -
04/11:13pm 16.6 W 30 40 1004.8 - 0.0 - - - - - - -
04/11:00pm 16.6 WNW 27 33 1005.4 - 0.0 - - - - - - -
04/10:30pm 16.7 W 33 37 1006.1 - 0.0 - - - - - - -
04/10:00pm 16.6 W 34 38 1006.4 - 0.0 - - - - - - -
04/09:30pm 16.8 W 35 39 1006.3 - 0.0 - - - - - - -
04/09:00pm 16.9 W 38 43 1005.9 - 0.0 - - - - - - -
04/08:30pm 17.0 W 38 44 1006.0 - 0.0 - - - - - - -
04/08:00pm 17.2 W 42 48 1005.6 - 0.0 - - - - - - -
04/07:30pm 17.2 W 43 49 1005.8 - 0.0 - - - - - - -
04/07:00pm 17.5 W 36 43 1006.7 - 0.0 - - - - - - -
04/06:30pm 17.5 W 31 40 1007.4 - 0.0 - - - - - - -
04/06:00pm 18.1 WNW 31 36 1007.7 - 0.0 - - - - - - -
04/05:30pm 17.6 WNW 34 41 1008.1 - 0.0 - - - - - - -
04/05:00pm 17.0 W 38 45 1007.9 - 0.0 - - - - - - -
04/04:30pm 18.4 W 36 41 1008.0 - 0.0 - - - - - - -
04/04:00pm 17.6 W 33 41 1008.3 - 0.0 - - - - - - -
04/03:30pm 17.7 W 31 37 1008.9 - 0.0 - - - - - - -
04/03:00pm 17.8 W 29 33 1009.1 - 0.0 - - - - - - -
04/02:30pm 19.2 W 30 35 1009.8 - 0.0 - - - - - - -
04/02:00pm 18.9 W 31 34 1010.2 - 0.0 - - - - - - -
04/01:30pm 17.4 W 31 35 1010.4 - 0.0 - - - - - - -
04/01:00pm 16.8 WNW 27 33 1010.7 - 0.0 - - - - - - -
04/12:30pm 16.4 W 27 31 1011.6 - 0.0 - - - - - - -
04/12:00pm 15.9 W 27 34 1011.6 - 0.0 - - - - - - -
04/11:30am 15.7 WNW 27 31 1012.3 - 0.0 - - - - - - -
04/11:15am 15.2 W 26 36 1012.5 - 0.0 - - - - - - -

Other Formats:

Comma delimited format used in spreadsheet applications
http://www.bom.gov.au/fwo/IDV60701/IDV60701.94949.axf

JavaScript Object Notation format (JSON) in row-major order
http://www.bom.gov.au/fwo/IDV60701/IDV60701.94949.json